KCPS/CPS METAR and TAF weather

Enter ICAO airport designator
Station Type Date Time Source
KCPS METAR 2022/12/04 11:53 UTC NOAA

KCPS 041153Z AUTO 00000KT 10SM CLR M02/M07 A3039 RMK AO2 SLP294 T10221072 11017 21033 55008


Station Type Date Time Source
KCPS Decoded METAR 2022/12/04 11:53 UTC NOAA

ST LOUIS DOWNTOWN AIRPORT, IL, United States (KCPS) 38-34N 090-09W 126M
Dec 04, 2022 - 06:53 AM EST / 2022.12.04 1153 UTC
Wind: Calm:0
Visibility: 10 mile(s):0
Sky conditions: clear
Temperature: 28.0 F (-2.2 C)
Dew Point: 19.0 F (-7.2 C)
Relative Humidity: 68%
Pressure (altimeter): 30.39 in. Hg (1029 hPa)
Pressure tendency: 0.02 inches (0.8 hPa) lower than three hours ago
ob: KCPS 041153Z AUTO 00000KT 10SM CLR M02/M07 A3039 RMK AO2 SLP294 T10221072 11017 21033 55008
cycle: 12

Station Type Date Time Source
KCPS TAF 2022/12/04 12:22 UTC NOAA

TAF KCPS 041120Z 0412/0512 00000KT P6SM BKN240
FM050800 17005KT P6SM OVC100

Example: see airport list